createdAt,value
2017-03-18T00:00:52.300Z,0
2017-03-18T00:01:52.236Z,0
2017-03-18T00:02:52.172Z,0
2017-03-18T00:03:52.110Z,0
2017-03-18T00:04:52.053Z,0
2017-03-18T00:05:52.089Z,0
2017-03-18T00:06:51.924Z,0
2017-03-18T00:07:51.868Z,0
2017-03-18T00:08:51.808Z,0
2017-03-18T00:09:51.746Z,0
2017-03-18T00:10:51.834Z,0
2017-03-18T00:11:51.315Z,0
2017-03-18T00:12:51.264Z,0
2017-03-18T00:13:51.511Z,0
2017-03-18T00:14:51.433Z,0
2017-03-18T00:15:51.468Z,0
2017-03-18T00:16:51.309Z,0
2017-03-18T00:17:51.260Z,0
2017-03-18T00:18:51.187Z,0
2017-03-18T00:19:51.127Z,0
2017-03-18T00:20:50.755Z,0
2017-03-18T00:21:50.700Z,0
2017-03-18T00:22:50.937Z,0
2017-03-18T00:23:50.874Z,0
2017-03-18T00:24:50.817Z,0
2017-03-18T00:25:50.750Z,0
2017-03-18T00:26:50.694Z,0
2017-03-18T00:27:50.329Z,0
2017-03-18T00:28:50.580Z,0
2017-03-18T00:29:50.502Z,0
2017-03-18T00:30:50.437Z,0
2017-03-18T00:31:50.382Z,0
2017-03-18T00:32:50.323Z,0
2017-03-18T00:33:50.263Z,0
2017-03-18T00:34:50.194Z,0
2017-03-18T00:35:50.229Z,0
2017-03-18T00:36:50.070Z,0
2017-03-18T00:37:50.008Z,0
2017-03-18T00:38:49.956Z,0
2017-03-18T00:39:49.919Z,0
2017-03-18T00:40:49.972Z,0
2017-03-18T00:41:49.760Z,0
2017-03-18T00:42:49.700Z,0
2017-03-18T00:43:49.643Z,0
2017-03-18T00:44:49.577Z,0
2017-03-18T00:45:49.812Z,0
2017-03-18T00:46:49.454Z,0
2017-03-18T00:47:49.390Z,0
2017-03-18T00:48:49.333Z,0
2017-03-18T00:49:49.305Z,0
2017-03-18T00:50:49.206Z,0
2017-03-18T00:51:49.143Z,0
2017-03-18T00:52:48.785Z,0
2017-03-18T00:53:49.019Z,0
2017-03-18T00:54:48.992Z,0
2017-03-18T00:55:48.898Z,0
2017-03-18T00:56:49.082Z,0
2017-03-18T00:57:48.777Z,0
2017-03-18T00:58:48.713Z,0
2017-03-18T00:59:48.642Z,0
2017-03-18T01:01:17.742Z,0
2017-03-18T01:02:17.573Z,0
2017-03-18T01:03:17.529Z,0
2017-03-18T01:04:17.448Z,0
2017-03-18T01:05:17.381Z,0
2017-03-18T01:06:17.026Z,0
2017-03-18T01:07:17.265Z,0
2017-03-18T01:08:16.900Z,0
2017-03-18T01:09:17.138Z,0
2017-03-18T01:10:17.072Z,0
2017-03-18T01:11:16.712Z,0
2017-03-18T01:12:17.505Z,0
2017-03-18T01:13:16.593Z,0
2017-03-18T01:14:16.232Z,0
2017-03-18T01:15:16.767Z,0
2017-03-18T01:16:16.701Z,0
2017-03-18T01:17:16.642Z,0
2017-03-18T01:18:16.282Z,0
2017-03-18T01:19:16.520Z,0
2017-03-18T01:20:16.706Z,0
2017-03-18T01:21:16.390Z,0
2017-03-18T01:22:16.028Z,0
2017-03-18T01:23:16.273Z,0
2017-03-18T01:24:16.213Z,0
2017-03-18T01:25:16.503Z,0
2017-03-18T01:26:16.078Z,0
2017-03-18T01:27:16.023Z,0
2017-03-18T01:28:15.960Z,0
2017-03-18T01:29:15.899Z,0
2017-03-18T01:30:16.086Z,0
2017-03-18T01:31:15.767Z,0
2017-03-18T01:32:15.707Z,0
2017-03-18T01:33:15.050Z,0
2017-03-18T01:34:15.590Z,0
2017-03-18T01:35:15.523Z,0
2017-03-18T01:36:15.458Z,0
2017-03-18T01:37:15.397Z,0
2017-03-18T01:38:15.341Z,0
2017-03-18T01:39:15.283Z,0
2017-03-18T01:40:14.916Z,0
2017-03-18T01:41:14.847Z,0
2017-03-18T01:42:15.091Z,0
2017-03-18T01:43:15.038Z,0
2017-03-18T01:44:14.970Z,0
2017-03-18T01:45:14.910Z,0
2017-03-18T01:46:14.841Z,0
2017-03-18T01:47:14.777Z,0
2017-03-18T01:48:14.726Z,0
2017-03-18T01:49:14.365Z,0
2017-03-18T01:50:14.292Z,0
2017-03-18T01:51:14.238Z,0
2017-03-18T01:52:14.170Z,0
2017-03-18T01:53:14.107Z,0
2017-03-18T01:54:14.352Z,0
2017-03-18T01:55:14.288Z,0
2017-03-18T01:56:13.922Z,0
2017-03-18T01:57:14.159Z,0
2017-03-18T01:58:13.501Z,0
2017-03-18T01:59:13.772Z,0
2017-03-18T02:00:13.972Z,0
2017-03-18T02:01:13.612Z,0
2017-03-18T02:02:13.849Z,0
2017-03-18T02:03:13.795Z,0
2017-03-18T02:04:13.735Z,0
2017-03-18T02:05:13.363Z,0
2017-03-18T02:06:13.600Z,0
2017-03-18T02:07:13.544Z,0
2017-03-18T02:08:13.483Z,0
2017-03-18T02:09:13.418Z,0
2017-03-18T02:10:13.359Z,0
2017-03-18T02:11:13.297Z,0
2017-03-18T02:12:12.931Z,0
2017-03-18T02:13:13.172Z,0
2017-03-18T02:14:13.106Z,0
2017-03-18T02:15:13.042Z,0
2017-03-18T02:16:12.681Z,0
2017-03-18T02:17:12.920Z,0
2017-03-18T02:18:12.861Z,0
2017-03-18T02:19:12.800Z,0
2017-03-18T02:20:12.735Z,0
2017-03-18T02:21:12.673Z,0
2017-03-18T02:22:12.310Z,0
2017-03-18T02:23:12.550Z,0
2017-03-18T02:24:12.521Z,0
2017-03-18T02:25:12.128Z,0
2017-03-18T02:26:12.362Z,0
2017-03-18T02:27:12.551Z,0
2017-03-18T02:28:12.264Z,0
2017-03-18T02:29:12.171Z,0
2017-03-18T02:30:12.413Z,0
2017-03-18T02:31:12.050Z,0
2017-03-18T02:32:11.989Z,0
2017-03-18T02:33:11.666Z,0
2017-03-18T02:34:11.875Z,0
2017-03-18T02:35:11.801Z,0
2017-03-18T02:36:11.752Z,0
2017-03-18T02:37:11.394Z,0
2017-03-18T02:38:11.037Z,0
2017-03-18T02:39:11.574Z,0
2017-03-18T02:40:11.509Z,0
2017-03-18T02:41:11.455Z,0
2017-03-18T02:42:11.081Z,0
2017-03-18T02:43:11.323Z,0
2017-03-18T02:44:11.259Z,0
2017-03-18T02:45:11.193Z,0
2017-03-18T02:46:11.145Z,0
2017-03-18T02:47:10.762Z,0
2017-03-18T02:48:11.025Z,0
2017-03-18T02:49:10.941Z,0
2017-03-18T02:50:10.889Z,0
2017-03-18T02:51:10.811Z,0
2017-03-18T02:52:10.463Z,0
2017-03-18T02:53:10.395Z,0
2017-03-18T02:54:10.329Z,0
2017-03-18T02:55:10.269Z,0
2017-03-18T02:56:10.516Z,0
2017-03-18T02:57:10.449Z,0
2017-03-18T02:58:10.395Z,0
2017-03-18T02:59:10.322Z,0
2017-03-18T03:00:10.103Z,0
2017-03-18T03:01:10.222Z,0
2017-03-18T03:02:09.543Z,0
2017-03-18T03:03:10.075Z,0
2017-03-18T03:04:10.009Z,0
2017-03-18T03:05:10.056Z,0
2017-03-18T03:06:09.886Z,0
2017-03-18T03:07:09.836Z,0
2017-03-18T03:08:09.174Z,0
2017-03-18T03:09:09.112Z,0
2017-03-18T03:10:09.646Z,0
2017-03-18T03:11:09.583Z,0
2017-03-18T03:12:09.526Z,0
2017-03-18T03:13:09.461Z,0
2017-03-18T03:14:09.419Z,0
2017-03-18T03:15:09.325Z,0
2017-03-18T03:16:09.283Z,0
2017-03-18T03:17:09.204Z,0
2017-03-18T03:18:09.143Z,0
2017-03-18T03:19:09.092Z,0
2017-03-18T03:20:09.174Z,0
2017-03-18T03:21:08.962Z,0
2017-03-18T03:22:08.890Z,0
2017-03-18T03:23:08.835Z,0
2017-03-18T03:24:08.782Z,0
2017-03-18T03:25:08.719Z,0
2017-03-18T03:26:08.668Z,0
2017-03-18T03:27:08.596Z,0
2017-03-18T03:28:08.529Z,0
2017-03-18T03:29:08.173Z,0
2017-03-18T03:30:08.393Z,0
2017-03-18T03:31:08.371Z,0
2017-03-18T03:32:08.282Z,0
2017-03-18T03:33:08.212Z,0
2017-03-18T03:34:08.151Z,0
2017-03-18T03:35:07.786Z,0
2017-03-18T03:36:08.023Z,0
2017-03-18T03:37:07.960Z,0
2017-03-18T03:38:07.899Z,0
2017-03-18T03:39:07.842Z,0
2017-03-18T03:40:07.774Z,0
2017-03-18T03:41:07.408Z,0
2017-03-18T03:42:07.650Z,0
2017-03-18T03:43:07.593Z,0
2017-03-18T03:44:07.536Z,0
2017-03-18T03:45:07.463Z,0
2017-03-18T03:46:07.404Z,0
2017-03-18T03:47:07.338Z,0
2017-03-18T03:48:07.286Z,0
2017-03-18T03:49:07.219Z,0
2017-03-18T03:50:07.153Z,0
2017-03-18T03:51:07.095Z,0
2017-03-18T03:52:07.031Z,0
2017-03-18T03:53:06.686Z,0
2017-03-18T03:54:06.609Z,0
2017-03-18T03:55:06.850Z,0
2017-03-18T03:56:06.486Z,0
2017-03-18T03:57:06.728Z,0
2017-03-18T03:58:06.673Z,0
2017-03-18T03:59:06.598Z,0
2017-03-18T04:00:06.535Z,0
2017-03-18T04:01:06.480Z,0
2017-03-18T04:02:06.415Z,0
2017-03-18T04:03:06.352Z,0
2017-03-18T04:04:06.302Z,0
2017-03-18T04:05:06.225Z,0
2017-03-18T04:06:05.861Z,0
2017-03-18T04:07:06.101Z,0
2017-03-18T04:08:06.045Z,0
2017-03-18T04:09:05.984Z,0
2017-03-18T04:10:05.917Z,0
2017-03-18T04:11:05.851Z,0
2017-03-18T04:12:05.795Z,0
2017-03-18T04:13:05.730Z,0
2017-03-18T04:14:05.668Z,0
2017-03-18T04:15:05.626Z,0
2017-03-18T04:16:05.547Z,0
2017-03-18T04:17:05.486Z,0
2017-03-18T04:18:05.426Z,0
2017-03-18T04:19:05.359Z,0
2017-03-18T04:20:05.305Z,0
2017-03-18T04:21:05.238Z,0
2017-03-18T04:22:05.173Z,0
2017-03-18T04:23:05.115Z,0
2017-03-18T04:24:05.049Z,0
2017-03-18T04:25:04.985Z,0
2017-03-18T04:26:04.924Z,0
2017-03-18T04:27:04.864Z,0
2017-03-18T04:28:04.849Z,0
2017-03-18T04:29:04.741Z,0
2017-03-18T04:30:04.675Z,0
2017-03-18T04:31:04.613Z,0
2017-03-18T04:32:04.556Z,0
2017-03-18T04:33:04.498Z,0
2017-03-18T04:34:04.431Z,0
2017-03-18T04:35:04.370Z,0
2017-03-18T04:36:04.005Z,0
2017-03-18T04:37:03.943Z,0
2017-03-18T04:38:04.186Z,0
2017-03-18T04:39:04.122Z,0
2017-03-18T04:40:04.069Z,0
2017-03-18T04:41:03.995Z,0
2017-03-18T04:42:03.942Z,0
2017-03-18T04:43:03.880Z,0
2017-03-18T04:44:03.816Z,0
2017-03-18T04:45:03.749Z,0
2017-03-18T04:46:03.685Z,0
2017-03-18T04:47:03.625Z,0
2017-03-18T04:48:03.576Z,0
2017-03-18T04:49:03.499Z,0
2017-03-18T04:50:03.436Z,0
2017-03-18T04:51:03.073Z,0
2017-03-18T04:52:03.313Z,0
2017-03-18T04:53:03.261Z,0
2017-03-18T04:54:03.201Z,0
2017-03-18T04:55:03.128Z,0
2017-03-18T04:56:03.066Z,0
2017-03-18T04:57:03.003Z,0
2017-03-18T04:58:02.984Z,0
2017-03-18T04:59:02.581Z,0
2017-03-18T05:00:02.826Z,0
2017-03-18T05:01:02.796Z,0
2017-03-18T05:02:02.708Z,0
2017-03-18T05:03:02.635Z,0
2017-03-18T05:04:02.576Z,0
2017-03-18T05:05:02.532Z,0
2017-03-18T05:06:02.156Z,0
2017-03-18T05:07:02.407Z,0
2017-03-18T05:08:02.352Z,0
2017-03-18T05:09:02.271Z,0
2017-03-18T05:10:02.213Z,0
2017-03-18T05:11:02.149Z,0
2017-03-18T05:12:02.089Z,0
2017-03-18T05:13:02.016Z,0
2017-03-18T05:14:01.978Z,0
2017-03-18T05:15:01.901Z,0
2017-03-18T05:16:01.828Z,0
2017-03-18T05:17:01.474Z,0
2017-03-18T05:18:01.722Z,0
2017-03-18T05:19:01.363Z,0
2017-03-18T05:20:01.588Z,0
2017-03-18T05:21:01.524Z,0
2017-03-18T05:22:01.462Z,0
2017-03-18T05:23:01.411Z,0
2017-03-18T05:24:01.038Z,0
2017-03-18T05:25:00.973Z,0
2017-03-18T05:26:01.219Z,0
2017-03-18T05:27:01.155Z,0
2017-03-18T05:28:00.800Z,0
2017-03-18T05:29:01.027Z,0
2017-03-18T05:30:00.962Z,0
2017-03-18T05:31:00.907Z,0
2017-03-18T05:32:00.547Z,0
2017-03-18T05:33:00.789Z,0
2017-03-18T05:34:00.470Z,0
2017-03-18T05:35:00.361Z,0
2017-03-18T05:36:00.600Z,0
2017-03-18T05:37:00.530Z,0
2017-03-18T05:38:00.469Z,0
2017-03-18T05:39:00.402Z,0
2017-03-18T05:40:00.352Z,0
2017-03-18T05:41:00.284Z,0
2017-03-18T05:42:00.228Z,4
2017-03-18T05:42:59.873Z,4
2017-03-18T05:43:59.796Z,4
2017-03-18T05:45:00.035Z,4
2017-03-18T05:45:59.971Z,4
2017-03-18T05:46:59.917Z,4
2017-03-18T05:47:59.871Z,4
2017-03-18T05:48:59.807Z,0
2017-03-18T05:49:59.802Z,4
2017-03-18T05:50:59.670Z,4
2017-03-18T05:51:59.611Z,4
2017-03-18T05:52:59.551Z,4
2017-03-18T05:53:59.481Z,4
2017-03-18T05:54:59.428Z,4
2017-03-18T05:55:59.358Z,4
2017-03-18T05:56:59.303Z,4
2017-03-18T05:57:58.937Z,4
2017-03-18T05:58:59.172Z,4
2017-03-18T05:59:59.100Z,4
2017-03-18T06:00:59.046Z,4
2017-03-18T06:01:58.990Z,4
2017-03-18T06:02:58.931Z,4
2017-03-18T06:03:58.868Z,4
2017-03-18T06:04:58.795Z,4
2017-03-18T06:05:58.734Z,4
2017-03-18T06:06:58.682Z,4
2017-03-18T06:07:58.617Z,4
2017-03-18T06:08:58.543Z,4
2017-03-18T06:09:58.490Z,4
2017-03-18T06:10:58.126Z,4
2017-03-18T06:11:58.365Z,4
2017-03-18T06:12:58.309Z,4
2017-03-18T06:13:57.946Z,4
2017-03-18T06:14:57.874Z,4
2017-03-18T06:15:58.106Z,4
2017-03-18T06:16:58.060Z,4
2017-03-18T06:17:58.002Z,4
2017-03-18T06:18:57.939Z,4
2017-03-18T06:19:57.874Z,4
2017-03-18T06:20:57.810Z,4
2017-03-18T06:21:57.747Z,4
2017-03-18T06:22:57.688Z,4
2017-03-18T06:23:57.618Z,4
2017-03-18T06:24:57.258Z,4
2017-03-18T06:25:57.488Z,4
2017-03-18T06:26:57.434Z,4
2017-03-18T06:27:57.379Z,4
2017-03-18T06:28:57.301Z,4
2017-03-18T06:29:56.940Z,4
2017-03-18T06:30:57.184Z,4
2017-03-18T06:31:57.124Z,4
2017-03-18T06:32:57.078Z,4
2017-03-18T06:33:57.023Z,4
2017-03-18T06:34:56.937Z,4
2017-03-18T06:35:56.881Z,4
2017-03-18T06:36:56.865Z,4
2017-03-18T06:37:56.772Z,4
2017-03-18T06:38:56.387Z,4
2017-03-18T06:39:56.636Z,4
2017-03-18T06:40:56.581Z,8
2017-03-18T06:41:56.501Z,8
2017-03-18T06:42:56.148Z,4
2017-03-18T06:43:56.089Z,4
2017-03-18T06:44:56.333Z,4
2017-03-18T06:45:56.264Z,4
2017-03-18T06:46:56.186Z,4
2017-03-18T06:47:55.840Z,4
2017-03-18T06:48:55.808Z,4
2017-03-18T06:49:56.010Z,4
2017-03-18T06:50:55.932Z,4
2017-03-18T06:51:55.597Z,4
2017-03-18T06:52:55.817Z,4
2017-03-18T06:53:55.774Z,8
2017-03-18T06:54:55.412Z,4
2017-03-18T06:55:55.643Z,4
2017-03-18T06:56:55.583Z,4
2017-03-18T06:57:55.532Z,8
2017-03-18T06:58:55.167Z,8
2017-03-18T06:59:55.093Z,8
2017-03-18T07:00:55.327Z,4
2017-03-18T07:01:55.267Z,4
2017-03-18T07:02:54.911Z,4
2017-03-18T07:03:55.151Z,4
2017-03-18T07:04:55.086Z,4
2017-03-18T07:05:54.716Z,4
2017-03-18T07:06:54.943Z,4
2017-03-18T07:07:54.881Z,4
2017-03-18T07:08:54.822Z,8
2017-03-18T07:09:54.761Z,4
2017-03-18T07:10:54.698Z,4
2017-03-18T07:11:54.636Z,4
2017-03-18T07:12:54.589Z,4
2017-03-18T07:13:54.516Z,4
2017-03-18T07:14:54.451Z,8
2017-03-18T07:15:54.088Z,4
2017-03-18T07:16:54.326Z,8
2017-03-18T07:17:54.267Z,4
2017-03-18T07:18:54.206Z,4
2017-03-18T07:19:53.844Z,4
2017-03-18T07:20:54.077Z,4
2017-03-18T07:21:54.029Z,4
2017-03-18T07:22:53.663Z,8
2017-03-18T07:23:53.891Z,4
2017-03-18T07:24:53.531Z,8
2017-03-18T07:25:53.769Z,4
2017-03-18T07:26:53.708Z,4
2017-03-18T07:27:53.650Z,4
2017-03-18T07:28:53.584Z,4
2017-03-18T07:29:53.516Z,4
2017-03-18T07:30:53.453Z,4
2017-03-18T07:31:53.394Z,4
2017-03-18T07:32:53.335Z,4
2017-03-18T07:33:53.275Z,8
2017-03-18T07:34:53.209Z,8
2017-03-18T07:35:53.146Z,4
2017-03-18T07:36:53.086Z,4
2017-03-18T07:37:53.023Z,8
2017-03-18T07:38:52.972Z,8
2017-03-18T07:39:52.902Z,4
2017-03-18T07:40:52.838Z,4
2017-03-18T07:41:52.773Z,4
2017-03-18T07:42:52.718Z,8
2017-03-18T07:43:52.653Z,8
2017-03-18T07:44:52.598Z,8
2017-03-18T07:45:52.315Z,8
2017-03-18T07:46:52.174Z,8
2017-03-18T07:47:52.406Z,8
2017-03-18T07:48:51.754Z,8
2017-03-18T07:49:52.278Z,8
2017-03-18T07:50:51.921Z,8
2017-03-18T07:51:52.151Z,8
2017-03-18T07:52:51.797Z,8
2017-03-18T07:53:52.033Z,8
2017-03-18T07:54:51.973Z,8
2017-03-18T07:55:51.904Z,8
2017-03-18T07:56:51.545Z,4
2017-03-18T07:57:51.485Z,8
2017-03-18T07:58:51.726Z,8
2017-03-18T07:59:51.660Z,8
2017-03-18T08:00:51.545Z,8
2017-03-18T08:01:51.532Z,8
2017-03-18T08:02:51.475Z,8
2017-03-18T08:03:51.413Z,8
2017-03-18T08:04:51.353Z,4
2017-03-18T08:05:51.288Z,8
2017-03-18T08:06:51.226Z,8
2017-03-18T08:07:50.869Z,12
2017-03-18T08:08:51.116Z,8
2017-03-18T08:09:51.038Z,8
2017-03-18T08:10:50.975Z,8
2017-03-18T08:11:50.913Z,8
2017-03-18T08:12:50.895Z,4
2017-03-18T08:13:50.801Z,8
2017-03-18T08:14:50.730Z,8
2017-03-18T08:15:50.664Z,8
2017-03-18T08:16:50.605Z,12
2017-03-18T08:17:50.544Z,12
2017-03-18T08:18:50.480Z,8
2017-03-18T08:19:50.433Z,12
2017-03-18T08:20:50.388Z,12
2017-03-18T08:21:50.297Z,20
2017-03-18T08:22:49.937Z,16
2017-03-18T08:23:50.170Z,16
2017-03-18T08:24:50.105Z,16
2017-03-18T08:25:50.043Z,20
2017-03-18T08:26:49.987Z,12
2017-03-18T08:27:49.932Z,8
2017-03-18T08:28:49.869Z,8
2017-03-18T08:29:49.494Z,4
2017-03-18T08:30:49.736Z,4
2017-03-18T08:31:49.671Z,4
2017-03-18T08:32:49.615Z,4
2017-03-18T08:33:49.557Z,12
2017-03-18T08:34:49.492Z,8
2017-03-18T08:35:49.122Z,16
2017-03-18T08:36:49.367Z,16
2017-03-18T08:37:49.303Z,20
2017-03-18T08:38:49.242Z,20
2017-03-18T08:39:49.175Z,24
2017-03-18T08:40:49.113Z,24
2017-03-18T08:41:49.062Z,20
2017-03-18T08:42:48.998Z,16
2017-03-18T08:43:48.932Z,16
2017-03-18T08:44:48.866Z,16
2017-03-18T08:45:48.808Z,8
2017-03-18T08:46:48.745Z,8
2017-03-18T08:47:48.684Z,8
2017-03-18T08:48:48.624Z,8
2017-03-18T08:49:48.561Z,12
2017-03-18T08:50:48.493Z,8
2017-03-18T08:51:48.435Z,12
2017-03-18T08:52:48.375Z,20
2017-03-18T08:53:48.311Z,20
2017-03-18T08:54:48.256Z,20
2017-03-18T08:55:47.894Z,20
2017-03-18T08:56:47.820Z,20
2017-03-18T08:57:47.767Z,12
2017-03-18T08:58:48.002Z,16
2017-03-18T08:59:47.938Z,16
2017-03-18T09:00:47.883Z,12
2017-03-18T09:01:47.820Z,12
2017-03-18T09:02:47.760Z,16
2017-03-18T09:03:47.391Z,12
2017-03-18T09:04:47.625Z,8
2017-03-18T09:05:47.562Z,8
2017-03-18T09:06:47.511Z,8
2017-03-18T09:07:46.843Z,8
2017-03-18T09:08:47.079Z,8
2017-03-18T09:09:47.318Z,4
2017-03-18T09:10:47.103Z,8
2017-03-18T09:11:47.207Z,12
2017-03-18T09:12:47.136Z,16
2017-03-18T09:13:46.779Z,20
2017-03-18T09:14:47.004Z,20
2017-03-18T09:15:47.295Z,20
2017-03-18T09:16:46.883Z,16
2017-03-18T09:17:46.824Z,16
2017-03-18T09:18:46.466Z,16
2017-03-18T09:19:46.399Z,16
2017-03-18T09:20:46.632Z,12
2017-03-18T09:21:46.271Z,8
2017-03-18T09:22:46.508Z,8
2017-03-18T09:23:46.489Z,12
2017-03-18T09:24:46.088Z,12
2017-03-18T09:25:46.482Z,16
2017-03-18T09:26:46.263Z,20
2017-03-18T09:27:46.203Z,16
2017-03-18T09:28:46.142Z,16
2017-03-18T09:29:45.777Z,12
2017-03-18T09:30:46.061Z,12
2017-03-18T09:31:45.951Z,12
2017-03-18T09:32:45.891Z,12
2017-03-18T09:33:45.537Z,8
2017-03-18T09:34:45.165Z,12
2017-03-18T09:35:45.702Z,12
2017-03-18T09:36:45.640Z,12
2017-03-18T09:37:45.581Z,12
2017-03-18T09:38:45.518Z,12
2017-03-18T09:39:45.155Z,24
2017-03-18T09:40:45.432Z,16
2017-03-18T09:41:45.330Z,8
2017-03-18T09:42:45.273Z,8
2017-03-18T09:43:45.220Z,8
2017-03-18T09:44:44.842Z,8
2017-03-18T09:45:45.090Z,8
2017-03-18T09:46:45.021Z,8
2017-03-18T09:47:44.985Z,16
2017-03-18T09:48:44.906Z,16
2017-03-18T09:49:44.836Z,16
2017-03-18T09:50:44.786Z,12
2017-03-18T09:51:44.410Z,8
2017-03-18T09:52:44.671Z,12
2017-03-18T09:53:44.591Z,12
2017-03-18T09:54:44.527Z,12
2017-03-18T09:55:44.462Z,16
2017-03-18T09:56:44.399Z,20
2017-03-18T09:57:43.745Z,20
2017-03-18T09:58:43.982Z,20
2017-03-18T09:59:43.946Z,20
2017-03-18T10:00:43.853Z,16
2017-03-18T10:01:43.791Z,16
2017-03-18T10:02:44.036Z,20
2017-03-18T10:03:43.981Z,36
2017-03-18T10:04:43.949Z,32
2017-03-18T10:05:43.850Z,20
2017-03-18T10:06:43.785Z,12
2017-03-18T10:07:43.723Z,12
2017-03-18T10:08:43.664Z,12
2017-03-18T10:09:43.597Z,8
2017-03-18T10:10:43.534Z,12
2017-03-18T10:11:43.477Z,12
2017-03-18T10:12:43.414Z,16
2017-03-18T10:13:43.343Z,20
2017-03-18T10:14:43.287Z,20
2017-03-18T10:15:43.225Z,24
2017-03-18T10:16:43.166Z,28
2017-03-18T10:17:42.507Z,28
2017-03-18T10:18:42.740Z,36
2017-03-18T10:19:42.975Z,40
2017-03-18T10:20:42.910Z,36
2017-03-18T10:21:42.850Z,44
2017-03-18T10:22:42.489Z,52
2017-03-18T10:23:42.433Z,48
2017-03-18T10:24:42.671Z,44
2017-03-18T10:25:42.302Z,60
2017-03-18T10:26:42.545Z,60
2017-03-18T10:27:42.187Z,56
2017-03-18T10:28:42.419Z,48
2017-03-18T10:29:42.353Z,40
2017-03-18T10:30:42.297Z,40
2017-03-18T10:31:42.233Z,24
2017-03-18T10:32:42.174Z,24
2017-03-18T10:33:42.108Z,20
2017-03-18T10:34:42.045Z,20
2017-03-18T10:35:41.983Z,28
2017-03-18T10:36:41.625Z,20
2017-03-18T10:37:41.862Z,12
2017-03-18T10:38:41.801Z,20
2017-03-18T10:39:41.436Z,16
2017-03-18T10:40:41.696Z,28
2017-03-18T10:41:41.308Z,32
2017-03-18T10:42:41.549Z,36
2017-03-18T10:43:41.190Z,40
2017-03-18T10:44:41.421Z,36
2017-03-18T10:45:41.362Z,56
2017-03-18T10:46:41.009Z,56
2017-03-18T10:47:41.241Z,56
2017-03-18T10:48:41.193Z,52
2017-03-18T10:49:41.121Z,32
2017-03-18T10:50:41.056Z,28
2017-03-18T10:51:40.989Z,36
2017-03-18T10:52:40.938Z,44
2017-03-18T10:53:40.870Z,36
2017-03-18T10:54:40.804Z,36
2017-03-18T10:55:40.744Z,40
2017-03-18T10:56:40.680Z,48
2017-03-18T10:57:40.652Z,48
2017-03-18T10:58:40.568Z,48
2017-03-18T10:59:40.496Z,36
2017-03-18T11:00:40.662Z,40
2017-03-18T11:01:40.376Z,36
2017-03-18T11:02:40.315Z,40
2017-03-18T11:03:40.253Z,32
2017-03-18T11:04:40.228Z,32
2017-03-18T11:05:40.124Z,24
2017-03-18T11:06:39.758Z,36
2017-03-18T11:07:39.404Z,20
2017-03-18T11:08:39.942Z,20
2017-03-18T11:09:39.876Z,20
2017-03-18T11:10:39.815Z,20
2017-03-18T11:11:39.747Z,16
2017-03-18T11:12:39.394Z,12
2017-03-18T11:13:39.635Z,20
2017-03-18T11:14:39.572Z,28
2017-03-18T11:15:39.517Z,16
2017-03-18T11:16:39.141Z,20
2017-03-18T11:17:39.381Z,16
2017-03-18T11:18:39.320Z,32
2017-03-18T11:19:39.258Z,36
2017-03-18T11:20:39.194Z,40
2017-03-18T11:21:39.139Z,44
2017-03-18T11:22:39.073Z,32
2017-03-18T11:23:39.015Z,24
2017-03-18T11:24:38.946Z,24
2017-03-18T11:25:38.881Z,48
2017-03-18T11:26:38.822Z,32
2017-03-18T11:27:38.767Z,36
2017-03-18T11:28:38.704Z,48
2017-03-18T11:29:38.635Z,48
2017-03-18T11:30:38.574Z,40
2017-03-18T11:31:38.516Z,28
2017-03-18T11:32:38.455Z,24
2017-03-18T11:33:38.388Z,24
2017-03-18T11:34:38.334Z,28
2017-03-18T11:35:37.964Z,44
2017-03-18T11:36:37.907Z,36
2017-03-18T11:37:38.141Z,32
2017-03-18T11:38:38.076Z,36
2017-03-18T11:39:37.717Z,28
2017-03-18T11:40:37.954Z,48
2017-03-18T11:41:37.894Z,20
2017-03-18T11:42:37.545Z,36
2017-03-18T11:43:37.766Z,32
2017-03-18T11:44:37.703Z,32
2017-03-18T11:45:37.348Z,20
2017-03-18T11:46:37.280Z,32
2017-03-18T11:47:37.224Z,32
2017-03-18T11:48:37.465Z,32
2017-03-18T11:49:37.401Z,32
2017-03-18T11:50:37.334Z,28
2017-03-18T11:51:36.971Z,32
2017-03-18T11:52:37.212Z,28
2017-03-18T11:53:37.149Z,32
2017-03-18T11:54:37.099Z,32
2017-03-18T11:55:37.031Z,28
2017-03-18T11:56:36.962Z,32
2017-03-18T11:57:36.903Z,28
2017-03-18T11:58:36.840Z,36
2017-03-18T11:59:36.777Z,32
2017-03-18T12:00:36.864Z,32
2017-03-18T12:01:36.654Z,32
2017-03-18T12:02:36.592Z,12
2017-03-18T12:03:36.536Z,32
2017-03-18T12:04:36.464Z,44
2017-03-18T12:05:36.507Z,40
2017-03-18T12:06:36.345Z,36
2017-03-18T12:07:36.286Z,36
2017-03-18T12:08:36.222Z,20
2017-03-18T12:09:36.157Z,16
2017-03-18T12:10:36.096Z,16
2017-03-18T12:11:36.034Z,28
2017-03-18T12:12:35.678Z,20
2017-03-18T12:13:35.913Z,24
2017-03-18T12:14:35.851Z,44
2017-03-18T12:15:35.485Z,36
2017-03-18T12:16:35.724Z,44
2017-03-18T12:17:35.666Z,44
2017-03-18T12:18:35.605Z,24
2017-03-18T12:19:35.542Z,24
2017-03-18T12:20:35.477Z,36
2017-03-18T12:21:35.412Z,20
2017-03-18T12:22:35.357Z,16
2017-03-18T12:23:35.293Z,16
2017-03-18T12:24:34.933Z,28
2017-03-18T12:25:35.168Z,20
2017-03-18T12:26:34.811Z,16
2017-03-18T12:27:35.047Z,28
2017-03-18T12:28:34.688Z,20
2017-03-18T12:29:34.624Z,20
2017-03-18T12:30:34.556Z,24
2017-03-18T12:31:34.806Z,16
2017-03-18T12:32:34.432Z,20
2017-03-18T12:33:34.682Z,16
2017-03-18T12:34:34.610Z,44
2017-03-18T12:35:34.546Z,52
2017-03-18T12:36:34.486Z,32
2017-03-18T12:37:34.430Z,32
2017-03-18T12:38:34.061Z,32
2017-03-18T12:39:34.311Z,40
2017-03-18T12:40:34.247Z,48
2017-03-18T12:41:34.173Z,32
2017-03-18T12:42:33.849Z,32
2017-03-18T12:43:34.065Z,56
2017-03-18T12:44:33.097Z,40
2017-03-18T12:45:33.628Z,56
2017-03-18T12:46:33.569Z,32
2017-03-18T12:47:33.808Z,28
2017-03-18T12:48:33.747Z,24
2017-03-18T12:49:33.685Z,16
2017-03-18T12:50:33.017Z,20
2017-03-18T12:51:33.264Z,32
2017-03-18T12:52:33.195Z,24
2017-03-18T12:53:33.444Z,28
2017-03-18T12:54:33.375Z,24
2017-03-18T12:55:33.312Z,16
2017-03-18T12:56:32.945Z,16
2017-03-18T12:57:33.186Z,16
2017-03-18T12:58:33.127Z,28
2017-03-18T12:59:33.061Z,20
2017-03-18T13:00:32.999Z,16
2017-03-18T13:01:32.934Z,16
2017-03-18T13:02:32.888Z,16
2017-03-18T13:03:32.214Z,24
2017-03-18T13:04:32.758Z,28
2017-03-18T13:05:32.696Z,20
2017-03-18T13:06:32.630Z,20
2017-03-18T13:07:32.267Z,20
2017-03-18T13:08:32.508Z,28
2017-03-18T13:09:31.842Z,32
2017-03-18T13:10:32.082Z,44
2017-03-18T13:11:32.321Z,24
2017-03-18T13:12:31.957Z,24
2017-03-18T13:13:32.199Z,32
2017-03-18T13:14:32.138Z,24
2017-03-18T13:15:31.810Z,20
2017-03-18T13:16:32.009Z,20
2017-03-18T13:17:31.947Z,28
2017-03-18T13:18:31.891Z,20
2017-03-18T13:19:31.823Z,20
2017-03-18T13:20:31.485Z,24
2017-03-18T13:21:31.702Z,24
2017-03-18T13:22:31.642Z,20
2017-03-18T13:23:31.603Z,20
2017-03-18T13:24:31.221Z,16
2017-03-18T13:25:30.851Z,20
2017-03-18T13:26:31.389Z,20
2017-03-18T13:27:31.030Z,24
2017-03-18T13:28:31.267Z,28
2017-03-18T13:29:30.607Z,20
2017-03-18T13:30:31.244Z,20
2017-03-18T13:31:31.079Z,16
2017-03-18T13:32:31.026Z,20
2017-03-18T13:33:30.962Z,24
2017-03-18T13:34:30.895Z,20
2017-03-18T13:35:30.531Z,24
2017-03-18T13:36:30.771Z,28
2017-03-18T13:37:30.719Z,28
2017-03-18T13:38:30.683Z,28
2017-03-18T13:39:30.590Z,20
2017-03-18T13:40:30.527Z,16
2017-03-18T13:41:30.161Z,24
2017-03-18T13:42:30.399Z,40
2017-03-18T13:43:30.346Z,28
2017-03-18T13:44:30.293Z,36
2017-03-18T13:45:30.418Z,24
2017-03-18T13:46:30.159Z,44
2017-03-18T13:47:30.097Z,32
2017-03-18T13:48:29.732Z,28
2017-03-18T13:49:29.975Z,16
2017-03-18T13:50:29.908Z,12
2017-03-18T13:51:29.842Z,16
2017-03-18T13:52:29.485Z,16
2017-03-18T13:53:29.725Z,28
2017-03-18T13:54:29.659Z,36
2017-03-18T13:55:29.594Z,36
2017-03-18T13:56:29.531Z,28
2017-03-18T13:57:29.475Z,28
2017-03-18T13:58:29.413Z,40
2017-03-18T13:59:29.051Z,24
2017-03-18T14:00:28.988Z,20
2017-03-18T14:01:29.220Z,36
2017-03-18T14:02:29.162Z,20
2017-03-18T14:03:29.103Z,24
2017-03-18T14:04:29.043Z,28
2017-03-18T14:05:28.974Z,40
2017-03-18T14:06:28.913Z,40
2017-03-18T14:07:28.849Z,36
2017-03-18T14:08:28.809Z,24
2017-03-18T14:09:28.733Z,28
2017-03-18T14:10:28.667Z,16
2017-03-18T14:11:28.314Z,16
2017-03-18T14:12:28.545Z,16
2017-03-18T14:13:28.493Z,12
2017-03-18T14:14:28.123Z,28
2017-03-18T14:15:28.061Z,32
2017-03-18T14:16:27.994Z,20
2017-03-18T14:17:27.943Z,20
2017-03-18T14:18:27.881Z,20
2017-03-18T14:19:28.119Z,20
2017-03-18T14:20:28.049Z,32
2017-03-18T14:21:27.986Z,28
2017-03-18T14:22:27.928Z,28
2017-03-18T14:23:27.607Z,32
2017-03-18T14:24:27.804Z,16
2017-03-18T14:25:27.746Z,16
2017-03-18T14:26:27.679Z,16
2017-03-18T14:27:27.640Z,12
2017-03-18T14:28:27.556Z,12
2017-03-18T14:29:27.499Z,12
2017-03-18T14:30:27.441Z,12
2017-03-18T14:31:27.067Z,12
2017-03-18T14:32:27.043Z,12
2017-03-18T14:33:27.253Z,16
2017-03-18T14:34:27.186Z,16